Time;durP1;ratioP1;P1;durP2;ratioP2;P2;SDS_P1;SDS_P2;PMS_P1;PMS_P2;Temp;Humidity;BMP_temperature;BMP_pressure;BME280_temperature;BME280_humidity;BME280_pressure;Samples;Min_cycle;Max_cycle;Signal;HPM_P1;HPM_P2
2021/12/04 00:00:58;;;;;;;;;2.00;2.00;;;;;21.47;39.49;99597.66;5059768;27;46103;-74
2021/12/04 00:03:24;;;;;;;;;2.25;2.25;;;;;21.46;39.50;99585.47;5037828;27;45558;-74
2021/12/04 00:06:01;;;;;;;;;1.00;1.00;;;;;21.47;39.78;99597.66;5037941;27;45456;-74
2021/12/04 00:08:28;;;;;;;;;2.00;1.00;;;;;21.37;39.53;99566.34;5047784;27;45442;-75
2021/12/04 00:10:53;;;;;;;;;3.75;2.00;;;;;21.47;39.86;99587.06;5065572;27;45485;-73
2021/12/04 00:13:19;;;;;;;;;2.00;2.00;;;;;21.47;39.74;99586.25;5050905;27;45639;-73
2021/12/04 00:15:44;;;;;;;;;1.75;1.75;;;;;21.34;39.78;99563.31;5029416;27;46147;-74
2021/12/04 00:18:09;;;;;;;;;2.25;1.25;;;;;21.39;39.22;99571.44;5023411;27;45556;-74
2021/12/04 00:20:35;;;;;;;;;2.75;2.75;;;;;21.35;39.88;99565.72;5023383;28;50272;-75
2021/12/04 00:23:00;;;;;;;;;2.75;2.00;;;;;21.45;39.60;99580.34;5019919;27;47041;-74
2021/12/04 00:25:27;;;;;;;;;1.25;1.25;;;;;21.42;39.69;99567.56;5020171;28;46254;-74
2021/12/04 00:27:54;;;;;;;;;2.00;2.00;;;;;21.48;39.79;99574.66;5072832;27;45874;-74
2021/12/04 00:30:19;;;;;;;;;2.25;1.50;;;;;21.40;39.89;99560.63;5029789;27;45456;-74
2021/12/04 00:32:54;;;;;;;;;1.75;1.75;;;;;21.42;39.74;99556.97;5020715;28;45566;-74
2021/12/04 00:36:10;;;;;;;;;2.00;2.00;;;;;21.44;39.67;99558.41;5016742;28;46274;-74
2021/12/04 00:43:19;;;;;;;;;2.50;2.00;;;;;21.33;39.75;99543.97;5016819;27;45365;-74
2021/12/04 00:49:13;;;;;;;;;3.00;2.00;;;;;21.44;40.00;99553.09;5021541;27;45654;-73
2021/12/04 00:51:50;;;;;;;;;1.50;1.50;;;;;21.45;40.00;99557.38;5023214;27;45580;-73
2021/12/04 00:54:17;;;;;;;;;1.50;1.50;;;;;21.50;39.53;99556.72;5023983;28;45517;-74
2021/12/04 00:56:43;;;;;;;;;1.50;1.50;;;;;21.49;39.57;99557.78;5028066;28;46398;-75
2021/12/04 00:59:10;;;;;;;;;1.00;1.00;;;;;21.50;39.64;99564.69;5026942;27;45473;-76
2021/12/04 01:01:39;;;;;;;;;3.75;2.00;;;;;21.50;39.84;99565.50;5024340;28;45367;-74
2021/12/04 01:04:09;;;;;;;;;2.50;1.50;;;;;21.49;39.95;99563.84;5021522;28;45804;-74
2021/12/04 01:06:35;;;;;;;;;1.00;1.00;;;;;21.47;39.86;99559.78;5027935;28;47378;-73
2021/12/04 01:09:00;;;;;;;;;2.00;2.00;;;;;21.49;40.16;99566.50;5023480;27;45393;-74
2021/12/04 01:11:26;;;;;;;;;2.00;2.00;;;;;21.43;40.10;99556.75;5025526;28;45347;-74
2021/12/04 01:13:51;;;;;;;;;2.00;2.00;;;;;21.49;39.82;99565.72;5024858;28;45459;-74
2021/12/04 01:16:17;;;;;;;;;1.25;1.25;;;;;21.38;40.01;99554.75;5025136;28;47252;-74
2021/12/04 01:18:43;;;;;;;;;1.67;1.67;;;;;21.46;40.04;99566.13;5063242;27;45474;-74
2021/12/04 01:21:09;;;;;;;;;1.00;1.00;;;;;;;;5053027;27;45407;-75
2021/12/04 01:23:34;;;;;;;;;3.00;2.00;;;;;21.47;40.13;99576.50;5050308;27;45403;-73
2021/12/04 01:25:59;;;;;;;;;0.00;0.00;;;;;21.40;40.33;99573.88;5064481;27;45946;-75
2021/12/04 01:28:25;;;;;;;;;1.75;1.50;;;;;21.42;40.31;99583.44;5053746;27;45434;-75
2021/12/04 01:30:50;;;;;;;;;1.25;1.25;;;;;21.38;40.20;99583.84;5051600;27;45414;-74
2021/12/04 01:33:16;;;;;;;;;2.00;2.00;;;;;21.37;40.31;99595.44;5035209;27;45486;-74
2021/12/04 01:35:41;;;;;;;;;2.50;2.00;;;;;21.30;40.34;99584.06;5068372;27;45196;-73
2021/12/04 01:38:06;;;;;;;;;1.75;1.50;;;;;21.32;40.32;99586.50;5058022;27;45363;-74
2021/12/04 01:40:34;;;;;;;;;2.00;2.00;;;;;21.34;40.20;99595.84;5034918;27;45400;-75
2021/12/04 01:42:59;;;;;;;;;3.25;2.00;;;;;21.32;40.05;99597.06;5026100;27;45531;-74
2021/12/04 01:45:24;;;;;;;;;3.00;3.00;;;;;21.33;40.64;99598.72;5056984;27;46132;-75
2021/12/04 01:47:57;;;;;;;;;2.00;1.00;;;;;21.28;40.47;99591.41;5047441;27;45466;-76
2021/12/04 01:50:23;;;;;;;;;1.00;1.00;;;;;21.29;40.69;99601.75;5025121;28;45448;-75
2021/12/04 01:52:48;;;;;;;;;13.75;13.00;;;;;21.28;39.88;99617.84;5027458;28;45172;-72
2021/12/04 01:55:13;;;;;;;;;7.50;5.00;;;;;21.13;40.40;99597.69;5027751;28;45385;-77
2021/12/04 01:57:39;;;;;;;;;3.00;3.00;;;;;21.24;40.27;99613.97;5021390;27;45369;-75
2021/12/04 02:00:06;;;;;;;;;4.25;4.25;;;;;21.19;40.50;99598.72;5025744;28;45436;-75
2021/12/04 02:02:31;;;;;;;;;6.25;4.00;;;;;21.21;40.27;99604.63;5030776;28;45554;-73
2021/12/04 02:04:57;;;;;;;;;4.75;3.25;;;;;21.29;40.25;99612.34;5015504;27;47248;-74
2021/12/04 02:07:22;;;;;;;;;4.00;3.00;;;;;21.31;40.02;99606.88;5019538;28;45504;-73
2021/12/04 02:09:47;;;;;;;;;3.00;3.00;;;;;21.32;40.25;99608.47;5019976;28;45510;-74
2021/12/04 02:12:13;;;;;;;;;3.00;3.00;;;;;21.34;39.93;99618.88;5034855;28;45479;-74
2021/12/04 02:14:41;;;;;;;;;3.75;3.75;;;;;21.29;40.07;99615.00;5019654;28;45893;-75
2021/12/04 02:17:07;;;;;;;;;3.00;3.00;;;;;21.35;39.72;99623.94;5016053;27;45558;-73
2021/12/04 02:19:33;;;;;;;;;3.00;3.00;;;;;21.36;39.52;99622.13;5019979;28;45235;-74
2021/12/04 02:21:59;;;;;;;;;3.75;3.75;;;;;21.36;39.64;99624.75;5019594;28;45352;-74
2021/12/04 02:24:24;;;;;;;;;4.00;4.00;;;;;21.31;39.70;99619.28;5018989;28;46384;-74
2021/12/04 02:26:50;;;;;;;;;4.25;4.25;;;;;21.34;39.63;99630.25;5018833;28;45410;-74
2021/12/04 02:29:16;;;;;;;;;3.75;3.75;;;;;21.38;39.62;99633.31;5015867;28;48517;-74
2021/12/04 02:31:47;;;;;;;;;5.50;3.75;;;;;21.37;39.76;99629.84;5018172;27;45421;-75
2021/12/04 02:34:21;;;;;;;;;2.00;2.00;;;;;21.38;39.48;99631.47;5029067;28;45363;-74
2021/12/04 02:36:47;;;;;;;;;4.00;4.00;;;;;21.38;39.37;99638.59;5031938;27;45453;-75
2021/12/04 02:39:36;;;;;;;;;5.25;4.00;;;;;21.38;39.44;99635.94;5032781;28;45266;-74
2021/12/04 02:42:05;;;;;;;;;4.00;4.00;;;;;21.37;39.39;99644.88;5031074;27;45549;-74
2021/12/04 02:44:36;;;;;;;;;3.00;3.00;;;;;21.37;39.51;99643.06;5032000;28;46081;-74
2021/12/04 02:47:02;;;;;;;;;3.00;2.00;;;;;21.37;39.52;99642.25;5031816;28;45446;-74
2021/12/04 02:49:27;;;;;;;;;4.75;4.75;;;;;21.36;39.14;99644.09;5033940;28;45362;-74
2021/12/04 02:51:53;;;;;;;;;3.00;3.00;;;;;21.36;38.98;99638.00;5031960;28;45350;-74
2021/12/04 02:54:18;;;;;;;;;1.75;1.00;;;;;21.29;39.11;99638.81;5031193;28;46300;-75
2021/12/04 02:56:49;;;;;;;;;3.50;3.50;;;;;21.35;39.11;99645.09;5100686;27;45475;-73
2021/12/04 02:59:14;;;;;;;;;5.25;4.00;;;;;21.34;38.88;99640.81;5031953;27;45472;-75
2021/12/04 03:01:41;;;;;;;;;5.00;4.00;;;;;21.24;38.84;99628.00;5033861;28;45355;-75
2021/12/04 03:04:11;;;;;;;;;4.50;4.00;;;;;21.33;39.01;99639.22;5031572;28;46376;-75
2021/12/04 03:06:39;;;;;;;;;4.75;4.00;;;;;21.33;39.15;99638.41;5031793;28;45436;-74
2021/12/04 03:09:04;;;;;;;;;3.75;3.75;;;;;21.32;39.18;99639.41;5031246;28;45350;-74
2021/12/04 03:11:30;;;;;;;;;1.50;1.50;;;;;21.32;39.17;99647.34;5030405;28;45428;-74
2021/12/04 03:13:55;;;;;;;;;3.00;3.00;;;;;21.31;39.27;99648.38;5032503;28;45677;-74
2021/12/04 03:16:21;;;;;;;;;4.00;4.00;;;;;21.21;39.01;99633.72;5031398;28;45373;-74
2021/12/04 03:18:46;;;;;;;;;4.75;4.75;;;;;21.30;39.56;99647.56;5031381;28;45548;-74
2021/12/04 03:21:11;;;;;;;;;3.50;3.00;;;;;21.09;39.03;99611.53;5029885;27;45504;-74
2021/12/04 03:23:51;;;;;;;;;3.00;3.00;;;;;21.24;39.14;99629.84;5031018;28;45507;-74
2021/12/04 03:26:16;;;;;;;;;2.00;2.00;;;;;21.18;39.27;99620.91;5015078;28;45369;-75
2021/12/04 03:28:41;;;;;;;;;3.00;3.00;;;;;21.19;38.99;99622.53;5032811;28;45531;-73
2021/12/04 03:31:13;;;;;;;;;3.75;3.00;;;;;21.28;39.22;99626.59;5031635;28;45219;-74
2021/12/04 03:41:50;;;;;;;;;2.75;2.00;;;;;21.26;39.09;99623.34;5030974;28;45437;-74
2021/12/04 03:44:15;;;;;;;;;2.50;2.50;;;;;21.17;39.28;99619.28;5030988;28;46290;-74
2021/12/04 03:46:41;;;;;;;;;2.50;2.50;;;;;21.25;38.76;99623.53;5033097;28;45320;-74
2021/12/04 03:49:06;;;;;;;;;3.00;3.00;;;;;21.18;39.28;99615.63;5031259;28;45916;-74
2021/12/04 03:51:31;;;;;;;;;3.50;2.00;;;;;21.14;39.11;99598.53;5030936;28;45535;-74
2021/12/04 03:53:57;;;;;;;;;3.75;3.00;;;;;21.20;39.15;99616.22;5029404;28;45974;-75
2021/12/04 03:56:23;;;;;;;;;2.00;2.00;;;;;21.12;39.20;99606.66;5031019;28;45427;-75
2021/12/04 03:58:49;;;;;;;;;3.00;3.00;;;;;21.23;39.13;99620.31;5031998;28;45385;-74
2021/12/04 04:01:14;;;;;;;;;2.00;2.00;;;;;21.23;38.92;99617.66;5030656;28;45402;-74
2021/12/04 04:03:39;;;;;;;;;4.50;3.25;;;;;21.22;38.99;99614.19;5030721;28;45458;-75
2021/12/04 04:06:05;;;;;;;;;5.00;3.25;;;;;21.10;38.93;99586.75;5030566;28;45354;-74
2021/12/04 04:08:31;;;;;;;;;4.00;3.75;;;;;21.15;39.03;99593.03;5030850;28;47480;-74
2021/12/04 04:10:56;;;;;;;;;2.75;2.75;;;;;21.25;39.19;99619.06;5030958;28;45296;-75
2021/12/04 04:13:22;;;;;;;;;3.00;3.00;;;;;21.21;38.96;99609.13;5032729;28;46216;-75
2021/12/04 04:15:47;;;;;;;;;3.25;2.75;;;;;21.25;38.88;99603.19;5030634;28;45347;-74
2021/12/04 04:18:13;;;;;;;;;4.00;4.00;;;;;21.16;39.15;99583.25;5030674;28;45206;-74
2021/12/04 04:20:38;;;;;;;;;2.50;2.50;;;;;21.22;39.29;99594.84;5030116;27;45395;-74
2021/12/04 04:23:04;;;;;;;;;4.00;4.00;;;;;21.26;38.98;99602.16;5030924;28;46346;-74
2021/12/04 04:25:29;;;;;;;;;4.25;2.75;;;;;21.24;39.04;99600.75;5032606;28;45397;-74
2021/12/04 04:27:55;;;;;;;;;3.00;3.00;;;;;21.15;39.06;99582.47;5029554;27;45399;-74
2021/12/04 04:30:20;;;;;;;;;5.25;3.75;;;;;21.27;38.89;99598.50;5030414;28;45418;-74
2021/12/04 04:32:49;;;;;;;;;4.00;4.00;;;;;21.17;39.08;99583.06;5029107;28;47040;-74
2021/12/04 04:35:16;;;;;;;;;4.75;3.25;;;;;21.14;38.46;99582.66;5012315;28;45722;-75
2021/12/04 05:15:21;;;;;;;;;3.50;3.00;;;;;21.17;39.01;99580.41;5055239;28;45336;-75
2021/12/04 05:20:36;;;;;;;;;3.00;3.00;;;;;21.14;38.59;99567.59;5050846;28;45502;-74
2021/12/04 05:23:02;;;;;;;;;3.50;3.50;;;;;21.13;38.73;99562.53;5051565;28;45706;-74
2021/12/04 05:25:29;;;;;;;;;4.00;4.00;;;;;21.12;38.84;99558.25;5056834;28;46974;-74
2021/12/04 05:27:55;;;;;;;;;2.00;2.00;;;;;21.20;38.86;99575.72;5055273;28;45577;-74
2021/12/04 05:30:20;;;;;;;;;4.00;2.25;;;;;21.19;38.85;99566.97;5055111;28;45566;-74
2021/12/04 05:32:45;;;;;;;;;3.50;3.00;;;;;21.19;38.68;99572.28;5055328;28;45692;-74
2021/12/04 05:35:11;;;;;;;;;3.00;3.00;;;;;21.14;38.96;99558.84;5054554;28;45497;-75
2021/12/04 05:37:36;;;;;;;;;4.75;3.00;;;;;21.16;38.82;99564.75;5076231;28;45481;-75
2021/12/04 05:40:03;;;;;;;;;3.75;3.75;;;;;21.20;39.11;99559.88;5042244;28;45506;-74
2021/12/04 05:42:29;;;;;;;;;2.25;2.00;;;;;21.20;38.86;99560.69;5067610;28;45631;-74
2021/12/04 05:44:55;;;;;;;;;3.50;2.25;;;;;21.12;39.14;99537.91;5067983;28;47190;-74
2021/12/04 05:47:26;;;;;;;;;3.50;3.00;;;;;21.19;38.77;99540.53;5057859;28;45435;-74
2021/12/04 05:50:17;;;;;;;;;2.00;2.00;;;;;21.19;39.07;99535.25;5012506;28;45373;-74
2021/12/04 05:55:27;;;;;;;;;5.00;4.00;;;;;21.15;38.97;99534.03;5012997;28;45424;-74
2021/12/04 05:57:52;;;;;;;;;2.00;2.00;;;;;21.18;39.21;99539.72;5010795;28;45606;-74
2021/12/04 06:00:20;;;;;;;;;4.00;4.00;;;;;21.07;39.25;99519.19;5012560;28;45482;-74
2021/12/04 06:02:46;;;;;;;;;3.50;2.75;;;;;21.09;38.94;99525.09;5012119;28;45519;-74
2021/12/04 06:05:12;;;;;;;;;3.00;3.00;;;;;21.20;38.92;99541.34;5012311;28;46442;-74
2021/12/04 06:07:38;;;;;;;;;4.00;3.00;;;;;21.19;38.71;99535.25;5010279;28;45384;-74
2021/12/04 06:10:05;;;;;;;;;2.75;2.00;;;;;20.73;38.68;99456.59;5012394;28;45325;-75
2021/12/04 06:12:30;;;;;;;;;2.50;2.50;;;;;21.21;38.33;99533.19;5012300;28;45494;-74
2021/12/04 06:14:56;;;;;;;;;4.00;4.00;;;;;21.04;38.71;99504.56;5011933;28;45517;-73
2021/12/04 06:17:23;;;;;;;;;3.50;3.50;;;;;21.21;38.62;99522.63;5012020;28;45338;-74
2021/12/04 06:22:40;;;;;;;;;3.00;2.75;;;;;21.15;39.05;99504.94;5033727;28;45295;-74
2021/12/04 06:25:12;;;;;;;;;3.75;3.75;;;;;21.22;39.03;99512.84;5031931;28;47040;-74
2021/12/04 06:27:38;;;;;;;;;2.50;2.50;;;;;21.21;38.88;99509.38;5031951;27;45298;-74
2021/12/04 06:30:06;;;;;;;;;2.25;2.25;;;;;21.21;39.01;99501.44;5030929;27;45413;-74
2021/12/04 06:32:31;;;;;;;;;2.00;2.00;;;;;21.09;38.72;99481.97;5031741;28;45433;-74
2021/12/04 06:34:57;;;;;;;;;2.50;2.50;;;;;21.20;38.94;99505.13;5033267;27;46159;-74
2021/12/04 06:37:23;;;;;;;;;2.50;2.00;;;;;21.21;38.77;99508.59;5032027;28;45362;-74
2021/12/04 06:39:48;;;;;;;;;3.75;3.75;;;;;21.14;38.81;99506.78;5031764;28;45616;-74
2021/12/04 06:42:13;;;;;;;;;3.25;2.00;;;;;21.04;38.85;99493.97;5031758;28;45377;-74
2021/12/04 06:44:39;;;;;;;;;4.00;4.00;;;;;21.21;38.93;99519.19;5031758;28;45476;-74
2021/12/04 06:47:04;;;;;;;;;3.75;3.00;;;;;21.20;38.65;99517.53;5031250;28;45407;-74
2021/12/04 06:49:39;;;;;;;;;4.00;2.75;;;;;21.19;38.78;99511.44;5033969;28;45413;-74
2021/12/04 06:52:08;;;;;;;;;2.25;2.25;;;;;21.03;38.95;99492.34;5031723;27;45430;-74
2021/12/04 06:54:40;;;;;;;;;3.25;2.00;;;;;21.18;39.11;99513.25;5031462;28;46161;-74
2021/12/04 06:57:09;;;;;;;;;2.50;2.50;;;;;21.13;38.46;99497.19;5031524;28;47370;-74
2021/12/04 06:59:37;;;;;;;;;3.00;3.00;;;;;21.17;38.98;99500.25;5031806;28;45372;-74
2021/12/04 07:02:03;;;;;;;;;2.00;2.00;;;;;21.20;38.71;99509.59;5031236;28;45560;-74
2021/12/04 07:04:34;;;;;;;;;2.50;2.50;;;;;20.88;39.03;99462.66;5033547;28;45423;-74
2021/12/04 07:07:00;;;;;;;;;3.50;3.00;;;;;21.19;39.01;99508.78;5031639;27;45323;-74
2021/12/04 07:09:26;;;;;;;;;2.25;2.25;;;;;21.17;38.72;99506.38;5030243;27;45433;-74
2021/12/04 07:11:51;;;;;;;;;3.00;3.00;;;;;21.12;38.97;99506.16;5031403;28;45423;-74
2021/12/04 07:14:16;;;;;;;;;3.00;3.00;;;;;21.20;38.78;99501.66;5029897;28;47167;-74
2021/12/04 07:16:42;;;;;;;;;4.50;2.00;;;;;21.16;38.90;99502.09;5033075;28;45307;-74
2021/12/04 07:19:08;;;;;;;;;4.00;4.00;;;;;21.17;39.01;99498.44;5031916;28;45346;-74
2021/12/04 07:21:33;;;;;;;;;3.00;3.00;;;;;21.17;38.92;99493.13;5030920;28;45319;-74
2021/12/04 07:23:58;;;;;;;;;4.50;3.00;;;;;21.18;38.86;99480.72;5031311;28;45866;-74
2021/12/04 07:26:24;;;;;;;;;2.75;2.75;;;;;21.17;38.73;99484.38;5031306;28;45576;-74
2021/12/04 07:28:49;;;;;;;;;4.00;2.00;;;;;21.18;39.04;99483.38;5032479;28;45425;-75
2021/12/04 07:31:15;;;;;;;;;2.25;2.25;;;;;21.08;38.65;99473.19;5032157;28;45370;-75
2021/12/04 07:33:40;;;;;;;;;4.75;2.00;;;;;21.06;39.02;99478.72;5031001;28;46263;-74
2021/12/04 07:36:05;;;;;;;;;2.50;1.75;;;;;21.15;38.79;99489.06;5031182;28;45422;-73
2021/12/04 07:38:31;;;;;;;;;2.50;2.50;;;;;21.16;38.74;99490.69;5031412;28;45445;-73
2021/12/04 07:40:57;;;;;;;;;3.00;3.00;;;;;21.08;38.93;99473.19;5012940;28;45323;-74
2021/12/04 07:43:23;;;;;;;;;2.50;2.50;;;;;21.05;38.70;99476.28;5031269;27;47165;-74
2021/12/04 07:45:48;;;;;;;;;2.75;2.75;;;;;21.15;38.87;99489.91;5030472;28;45499;-74
2021/12/04 07:48:14;;;;;;;;;3.25;2.75;;;;;21.13;38.98;99478.69;5098610;27;45286;-74
2021/12/04 07:50:39;;;;;;;;;2.75;2.75;;;;;21.05;38.84;99471.78;5031200;28;45515;-74
2021/12/04 07:53:05;;;;;;;;;3.25;2.25;;;;;21.10;38.66;99488.88;5030775;28;46113;-74
2021/12/04 07:55:31;;;;;;;;;2.00;2.00;;;;;21.11;38.74;99495.78;5032083;28;45422;-74
2021/12/04 07:57:57;;;;;;;;;2.50;2.00;;;;;21.11;38.84;99504.53;5012266;28;45570;-74
2021/12/04 08:00:23;;;;;;;;;2.00;2.00;;;;;21.16;38.76;99536.47;5030429;28;45420;-74
2021/12/04 08:02:50;;;;;;;;;2.00;2.00;;;;;21.18;38.65;99558.22;5030669;28;45541;-74
2021/12/04 08:05:17;;;;;;;;;2.00;2.00;;;;;21.15;38.70;99558.66;5030792;27;45611;-74
2021/12/04 08:07:42;;;;;;;;;1.75;1.75;;;;;21.18;38.86;99568.81;5032628;27;45406;-74
2021/12/04 08:10:10;;;;;;;;;3.00;3.00;;;;;21.19;38.68;99585.50;5031277;28;45294;-75
2021/12/04 08:12:36;;;;;;;;;3.25;3.25;;;;;21.19;38.83;99596.06;5030069;28;45462;-73
2021/12/04 08:15:06;;;;;;;;;2.75;1.00;;;;;21.19;38.86;99604.00;5030397;28;45336;-74
2021/12/04 08:17:31;;;;;;;;;2.50;2.50;;;;;21.20;38.63;99616.22;5030868;27;45303;-74
2021/12/04 08:19:57;;;;;;;;;3.00;1.75;;;;;21.20;38.72;99604.81;5030422;27;45465;-74
2021/12/04 08:22:22;;;;;;;;;2.00;1.50;;;;;21.21;38.78;99619.69;5032465;28;45980;-74
2021/12/04 08:24:48;;;;;;;;;1.75;1.75;;;;;21.15;38.52;99623.97;5030358;28;45266;-74
2021/12/04 08:27:14;;;;;;;;;3.50;3.00;;;;;21.19;38.84;99635.75;5029206;28;45342;-74
2021/12/04 08:29:40;;;;;;;;;2.00;2.00;;;;;21.20;39.08;99649.78;5030475;27;45620;-74
2021/12/04 08:32:07;;;;;;;;;3.00;2.00;;;;;21.20;39.01;99644.50;5029578;28;45402;-74
2021/12/04 08:34:33;;;;;;;;;3.00;3.00;;;;;21.17;38.90;99651.00;5032437;28;45473;-74
2021/12/04 08:36:58;;;;;;;;;2.00;2.00;;;;;21.15;38.68;99663.63;5030287;28;45636;-74
2021/12/04 08:39:23;;;;;;;;;4.00;3.00;;;;;21.19;38.54;99670.13;5030411;28;45554;-74
2021/12/04 08:41:49;;;;;;;;;2.00;2.00;;;;;21.11;39.02;99654.47;5029768;28;45514;-74
2021/12/04 08:44:15;;;;;;;;;3.50;2.75;;;;;21.11;38.97;99665.03;5030422;28;45484;-74
2021/12/04 08:46:41;;;;;;;;;2.00;2.00;;;;;21.18;38.65;99668.53;5032536;28;45370;-74
2021/12/04 08:49:07;;;;;;;;;2.00;2.00;;;;;21.19;38.85;99683.38;5029930;28;45914;-74
2021/12/04 08:51:34;;;;;;;;;3.00;3.00;;;;;21.16;38.64;99700.44;5029975;28;45497;-74
2021/12/04 08:54:00;;;;;;;;;2.00;2.00;;;;;21.18;38.67;99706.34;5030049;27;45494;-74
2021/12/04 08:56:25;;;;;;;;;1.00;1.00;;;;;21.09;38.86;99697.00;5029778;28;45399;-74
2021/12/04 08:58:51;;;;;;;;;3.00;2.00;;;;;21.18;38.59;99710.84;5030973;28;45415;-74
2021/12/04 09:01:25;;;;;;;;;1.00;1.00;;;;;21.18;38.96;99721.44;5031226;28;45445;-74
2021/12/04 09:04:04;;;;;;;;;1.25;1.00;;;;;21.15;38.71;99716.53;5029911;27;45674;-74
2021/12/04 09:06:30;;;;;;;;;2.00;1.00;;;;;21.10;39.10;99719.78;5028628;28;45479;-74
2021/12/04 09:08:56;;;;;;;;;1.50;1.50;;;;;20.69;38.88;99666.78;5029695;28;45370;-75
2021/12/04 09:11:27;;;;;;;;;1.00;1.00;;;;;21.16;39.03;99740.13;5030363;28;45472;-75
2021/12/04 09:13:53;;;;;;;;;1.25;1.25;;;;;21.17;38.90;99746.25;5033730;28;45951;-74
2021/12/04 09:16:21;;;;;;;;;2.50;2.50;;;;;21.12;38.51;99746.03;5034504;28;45465;-74
2021/12/04 09:18:46;;;;;;;;;1.50;1.50;;;;;21.13;38.77;99745.81;5032627;27;45514;-75
2021/12/04 09:21:12;;;;;;;;;1.75;1.75;;;;;21.15;38.61;99743.00;5032328;27;46297;-74
2021/12/04 09:23:41;;;;;;;;;2.00;2.00;;;;;21.10;38.53;99740.94;5032858;28;45311;-74
2021/12/04 09:26:12;;;;;;;;;2.00;2.00;;;;;21.08;38.78;99744.81;5032710;28;45413;-74
2021/12/04 09:28:47;;;;;;;;;1.00;1.00;;;;;21.11;38.97;99765.53;5034930;28;45478;-74
2021/12/04 10:01:06;;;;;;;;;2.00;1.00;;;;;21.16;38.55;99818.66;5030780;28;45484;-74
2021/12/04 10:03:56;;;;;;;;;1.00;1.00;;;;;21.10;38.79;99811.53;5032112;27;46020;-74
2021/12/04 10:20:07;;;;;;;;;1.00;0.67;;;;;21.18;38.80;99878.28;4992836;27;45590;-74
2021/12/04 10:22:48;;;;;;;;;2.00;2.00;;;;;21.10;38.58;99875.00;4995437;28;45343;-74
2021/12/04 10:33:18;;;;;;;;;0.00;0.00;;;;;21.22;38.55;99891.94;4994499;28;45575;-74
2021/12/04 10:35:45;;;;;;;;;0.67;0.67;;;;;21.24;38.44;99881.97;4994207;28;46424;-74
2021/12/04 10:38:26;;;;;;;;;0.00;0.00;;;;;21.15;38.72;99880.53;4989887;28;45328;-74
2021/12/04 10:40:53;;;;;;;;;1.00;1.00;;;;;21.24;38.43;99897.03;5007013;28;45439;-74
2021/12/04 10:43:26;;;;;;;;;0.00;0.00;;;;;21.20;38.93;99890.50;4995973;28;45447;-74
2021/12/04 10:45:59;;;;;;;;;1.00;1.00;;;;;21.24;38.46;99897.84;5004467;28;45317;-75
2021/12/04 10:48:30;;;;;;;;;1.00;1.00;;;;;21.25;38.66;99907.44;5011894;28;45476;-74
2021/12/04 10:53:31;;;;;;;;;1.00;1.00;;;;;21.24;38.83;99913.72;5011521;28;45319;-74
2021/12/04 11:22:25;;;;;;;;;1.00;1.00;;;;;21.21;38.48;99940.56;5030594;28;45358;-74
2021/12/04 11:36:53;;;;;;;;;3.00;1.25;;;;;21.22;38.63;99944.84;4860728;28;45459;-72
2021/12/04 11:39:36;;;;;;;;;1.00;0.00;;;;;21.25;38.37;99960.34;4860838;28;45817;-74
2021/12/04 11:42:19;;;;;;;;;0.00;0.00;;;;;21.27;38.84;99960.94;4847540;29;45478;-74
2021/12/04 11:45:03;;;;;;;;;0.00;0.00;;;;;21.27;38.45;99962.78;4860689;28;45462;-73
2021/12/04 11:47:37;;;;;;;;;1.00;1.00;;;;;21.30;38.29;99967.69;4858598;29;45567;-73
2021/12/04 11:50:24;;;;;;;;;2.50;1.00;;;;;21.29;38.34;99968.69;4857400;28;46278;-73
2021/12/04 11:52:54;;;;;;;;;1.00;1.00;;;;;21.31;38.54;99973.78;4871687;28;45392;-73
2021/12/04 11:55:22;;;;;;;;;2.00;2.00;;;;;21.31;38.41;99979.91;4860738;29;45512;-74
2021/12/04 11:57:48;;;;;;;;;1.00;1.00;;;;;21.29;37.89;99988.03;4860059;29;45611;-73
2021/12/04 12:00:28;;;;;;;;;0.33;0.33;;;;;21.26;38.30;99977.81;4859941;28;47142;-74
2021/12/04 12:03:12;;;;;;;;;1.00;1.00;;;;;21.31;38.65;99989.66;4860313;28;45526;-74
2021/12/04 12:05:42;;;;;;;;;2.00;2.00;;;;;21.19;38.31;99982.28;4917533;28;45567;-74
2021/12/04 12:08:18;;;;;;;;;2.00;1.00;;;;;21.30;38.63;99994.13;4951206;28;45621;-74
2021/12/04 12:10:49;;;;;;;;;3.00;1.00;;;;;21.29;38.65;99997.78;4990202;28;45409;-73
2021/12/04 12:13:23;;;;;;;;;1.67;0.00;;;;;21.34;38.23;99994.56;5029728;28;45414;-75
2021/12/04 12:15:59;;;;;;;;;2.25;1.00;;;;;21.21;38.52;99979.44;5030490;28;45653;-70
2021/12/04 12:18:25;;;;;;;;;3.33;0.33;;;;;21.36;38.21;100009.25;5030656;28;45580;-73
2021/12/04 12:20:57;;;;;;;;;1.75;1.75;;;;;21.34;38.32;100007.81;5029034;27;46931;-73
2021/12/04 12:23:27;;;;;;;;;0.50;0.50;;;;;21.38;38.09;100007.22;5030727;28;45330;-74
2021/12/04 12:36:31;;;;;;;;;2.00;1.00;;;;;21.38;37.90;100001.91;5030651;28;45512;-73
2021/12/04 12:39:22;;;;;;;;;1.00;1.00;;;;;21.39;37.97;100008.81;5030356;27;45286;-73
2021/12/04 12:41:49;;;;;;;;;1.00;1.00;;;;;21.36;38.04;100006.59;5032433;27;45983;-73
2021/12/04 12:44:33;;;;;;;;;1.00;1.00;;;;;21.39;37.82;100014.13;5030463;28;45479;-74
2021/12/04 12:47:05;;;;;;;;;3.00;2.00;;;;;21.33;37.84;99999.03;5033378;28;48324;-74
2021/12/04 12:49:39;;;;;;;;;1.50;1.25;;;;;21.39;38.11;100006.19;5034992;27;45376;-74
2021/12/04 12:52:05;;;;;;;;;1.00;1.00;;;;;21.40;37.90;100010.47;5032805;27;46344;-73
2021/12/04 12:54:52;;;;;;;;;2.00;1.50;;;;;21.40;37.69;100005.19;5032951;28;45390;-74
2021/12/04 12:57:27;;;;;;;;;1.00;0.25;;;;;21.34;38.10;100003.31;5033267;28;45556;-74
2021/12/04 13:14:11;;;;;;;;;1.00;1.00;;;;;21.40;37.88;100021.06;5031747;28;45817;-73
2021/12/04 13:16:37;;;;;;;;;2.25;1.00;;;;;21.42;37.90;100020.06;5035016;28;45504;-73
2021/12/04 13:19:07;;;;;;;;;1.75;1.25;;;;;21.42;37.65;100025.34;5032596;28;45286;-73
2021/12/04 13:21:38;;;;;;;;;1.50;1.50;;;;;21.42;37.44;100031.44;5032838;27;45423;-73
2021/12/04 13:24:07;;;;;;;;;0.25;0.00;;;;;21.42;37.73;100017.41;5032794;28;45383;-73
2021/12/04 13:26:36;;;;;;;;;0.00;0.00;;;;;21.40;37.89;100018.41;5033056;28;45442;-73
2021/12/04 13:29:05;;;;;;;;;1.25;1.25;;;;;21.14;37.86;99976.75;5032966;28;45268;-73
2021/12/04 13:31:33;;;;;;;;;0.25;0.25;;;;;21.40;37.81;100020.22;5013823;27;45316;-73
2021/12/04 13:33:58;;;;;;;;;1.00;1.00;;;;;21.42;37.80;100025.34;5031041;28;46235;-73
2021/12/04 13:36:27;;;;;;;;;0.75;0.75;;;;;21.34;37.90;100016.53;5032597;28;45589;-73
2021/12/04 13:39:00;;;;;;;;;2.00;1.00;;;;;21.13;37.88;99981.22;5031665;28;45462;-73
2021/12/04 13:41:28;;;;;;;;;1.50;0.25;;;;;21.43;37.86;100022.50;5032700;28;45434;-73
2021/12/04 13:43:55;;;;;;;;;4.00;1.75;;;;;21.33;37.63;100017.56;5033477;28;46949;-73
2021/12/04 13:46:21;;;;;;;;;1.75;0.25;;;;;21.28;37.72;100012.88;5031760;28;45311;-73
2021/12/04 13:48:47;;;;;;;;;1.75;0.00;;;;;21.36;37.54;100019.00;5032561;28;45385;-73
2021/12/04 13:51:13;;;;;;;;;1.00;1.00;;;;;21.42;37.72;100017.41;5032511;28;45469;-73
2021/12/04 13:53:40;;;;;;;;;3.75;1.00;;;;;21.45;37.51;100027.56;5033698;27;45379;-73
2021/12/04 13:56:13;;;;;;;;;2.00;1.00;;;;;21.43;37.65;100025.13;5031457;28;45316;-73
2021/12/04 13:58:48;;;;;;;;;2.00;1.00;;;;;21.38;37.55;100011.69;5034643;27;45511;-73
2021/12/04 14:01:14;;;;;;;;;1.00;1.00;;;;;21.46;37.64;100021.28;5032665;28;45560;-73
2021/12/04 14:03:41;;;;;;;;;2.25;1.00;;;;;21.46;37.70;100022.09;5032050;27;47127;-73
2021/12/04 14:06:15;;;;;;;;;4.00;2.00;;;;;21.48;37.60;100025.38;5032302;28;45349;-74
2021/12/04 14:08:41;;;;;;;;;1.33;1.00;;;;;21.40;37.30;100025.53;5032445;28;45543;-73
2021/12/04 14:11:06;;;;;;;;;1.00;1.00;;;;;21.25;37.77;99996.56;5032241;28;45564;-73
2021/12/04 14:13:32;;;;;;;;;1.25;0.00;;;;;21.48;37.69;100033.31;5017283;27;48429;-73
2021/12/04 14:16:00;;;;;;;;;1.00;1.00;;;;;21.36;37.85;100022.47;5031823;27;45554;-74
2021/12/04 14:18:28;;;;;;;;;2.00;2.00;;;;;21.46;37.61;100032.69;5023618;27;45539;-73
2021/12/04 14:21:00;;;;;;;;;2.00;2.00;;;;;21.50;37.40;100043.69;5031945;28;45421;-73
2021/12/04 14:23:27;;;;;;;;;1.00;1.00;;;;;21.37;37.52;100025.91;5030456;28;47450;-73
2021/12/04 14:25:55;;;;;;;;;2.00;0.75;;;;;21.51;37.39;100058.56;5031968;28;45371;-74
2021/12/04 14:28:32;;;;;;;;;1.25;1.25;;;;;21.51;37.81;100056.75;5033887;28;45409;-74
2021/12/04 14:30:58;;;;;;;;;0.50;0.50;;;;;21.46;37.41;100040.63;5023473;27;45606;-75
2021/12/04 14:33:26;;;;;;;;;3.50;1.00;;;;;21.52;37.93;100068.94;5023179;28;45495;-74
2021/12/04 14:35:53;;;;;;;;;1.00;1.00;;;;;21.53;37.83;100075.06;5017093;27;45506;-73